Wolfeboro, New Hampshire
Current Conditions -  °F | °C
As of 9:55 PM on Wednesday 26 Nov 2014 (Local Time) from KLCI Reporting Station
Overcast Overcast  
Wind Chill: 25°   Ceiling: 700
Heat Index: 32°   Visibility: 1mi
Dew Point: 30°   Wind: 8mph
Humidity: 93%   Direction: 60°ENE
Pressure: 29.8"   Gusts: NA
Location:  43.58°N, 71.2°W
Report Text: KLCI 270255Z AUTO 06007KT 1SM OVC007 00/M01 A2980 RMK AO1 P0013
Loading
Personal Weather Stations






























Interactive Weather Map New forecast layout! Learn more

10-Day Weather Forecast

Advertisements
Track Severe Weather on mobile